sensor_id;sensor_type;location;lat;lon;timestamp;pressure;altitude;pressure_sealevel;temperature;humidity
11314;BME280;5712;48.858;9.206;2023-07-02T00:01:10;97535.03;;;16.23;100.00
11314;BME280;5712;48.858;9.206;2023-07-02T00:03:37;97537.47;;;16.16;100.00
11314;BME280;5712;48.858;9.206;2023-07-02T00:06:05;97532.31;;;16.15;100.00
11314;BME280;5712;48.858;9.206;2023-07-02T00:08:31;97530.16;;;16.18;100.00
11314;BME280;5712;48.858;9.206;2023-07-02T00:10:58;97536.50;;;16.17;100.00
11314;BME280;5712;48.858;9.206;2023-07-02T00:13:24;97529.00;;;16.21;100.00
11314;BME280;5712;48.858;9.206;2023-07-02T00:15:51;97528.31;;;16.19;100.00
11314;BME280;5712;48.858;9.206;2023-07-02T00:18:17;97534.50;;;16.19;100.00
11314;BME280;5712;48.858;9.206;2023-07-02T00:20:44;97535.78;;;16.15;100.00
11314;BME280;5712;48.858;9.206;2023-07-02T00:23:12;97533.75;;;16.09;100.00
11314;BME280;5712;48.858;9.206;2023-07-02T00:25:39;97530.16;;;16.01;100.00
11314;BME280;5712;48.858;9.206;2023-07-02T00:28:05;97532.16;;;15.99;100.00
11314;BME280;5712;48.858;9.206;2023-07-02T00:30:32;97532.63;;;15.95;100.00
11314;BME280;5712;48.858;9.206;2023-07-02T00:32:58;97526.25;;;15.88;100.00
11314;BME280;5712;48.858;9.206;2023-07-02T00:35:25;97532.31;;;15.80;100.00
11314;BME280;5712;48.858;9.206;2023-07-02T00:37:51;97535.81;;;15.81;100.00
11314;BME280;5712;48.858;9.206;2023-07-02T00:40:19;97528.66;;;15.81;100.00
11314;BME280;5712;48.858;9.206;2023-07-02T00:42:45;97526.53;;;15.85;100.00
11314;BME280;5712;48.858;9.206;2023-07-02T00:45:12;97536.56;;;15.91;100.00
11314;BME280;5712;48.858;9.206;2023-07-02T00:47:38;97536.56;;;15.91;100.00
11314;BME280;5712;48.858;9.206;2023-07-02T00:50:06;97531.91;;;15.93;100.00
11314;BME280;5712;48.858;9.206;2023-07-02T00:52:34;97521.81;;;15.96;100.00
11314;BME280;5712;48.858;9.206;2023-07-02T00:55:01;97527.97;;;15.97;100.00
11314;BME280;5712;48.858;9.206;2023-07-02T00:57:29;97536.09;;;15.95;100.00
11314;BME280;5712;48.858;9.206;2023-07-02T00:59:56;97534.44;;;15.94;100.00
11314;BME280;5712;48.858;9.206;2023-07-02T01:02:22;97541.09;;;15.90;100.00
11314;BME280;5712;48.858;9.206;2023-07-02T01:04:50;97535.75;;;15.90;100.00
11314;BME280;5712;48.858;9.206;2023-07-02T01:07:22;97527.16;;;15.96;100.00
11314;BME280;5712;48.858;9.206;2023-07-02T01:09:52;97535.97;;;15.97;100.00
11314;BME280;5712;48.858;9.206;2023-07-02T01:12:18;97545.44;;;15.91;100.00
11314;BME280;5712;48.858;9.206;2023-07-02T01:14:49;97539.25;;;15.91;100.00
11314;BME280;5712;48.858;9.206;2023-07-02T01:17:16;97548.22;;;15.90;100.00
11314;BME280;5712;48.858;9.206;2023-07-02T01:19:46;97543.97;;;15.97;100.00
11314;BME280;5712;48.858;9.206;2023-07-02T01:22:17;97546.34;;;16.00;100.00
11314;BME280;5712;48.858;9.206;2023-07-02T01:24:45;97536.63;;;15.98;100.00
11314;BME280;5712;48.858;9.206;2023-07-02T01:27:13;97529.34;;;16.01;100.00
11314;BME280;5712;48.858;9.206;2023-07-02T01:29:40;97543.81;;;15.98;100.00
11314;BME280;5712;48.858;9.206;2023-07-02T01:32:07;97548.22;;;15.90;100.00
11314;BME280;5712;48.858;9.206;2023-07-02T01:34:34;97559.19;;;15.87;100.00
11314;BME280;5712;48.858;9.206;2023-07-02T01:37:03;97555.84;;;15.85;100.00
11314;BME280;5712;48.858;9.206;2023-07-02T01:39:30;97551.13;;;15.79;100.00
11314;BME280;5712;48.858;9.206;2023-07-02T01:42:08;97545.78;;;15.79;100.00
11314;BME280;5712;48.858;9.206;2023-07-02T01:44:35;97546.94;;;15.76;100.00
11314;BME280;5712;48.858;9.206;2023-07-02T01:47:01;97552.41;;;15.75;100.00
11314;BME280;5712;48.858;9.206;2023-07-02T01:49:28;97557.06;;;15.73;100.00
11314;BME280;5712;48.858;9.206;2023-07-02T01:51:55;97549.91;;;15.73;100.00
11314;BME280;5712;48.858;9.206;2023-07-02T01:54:25;97549.53;;;15.68;100.00
11314;BME280;5712;48.858;9.206;2023-07-02T01:56:52;97545.66;;;15.63;100.00
11314;BME280;5712;48.858;9.206;2023-07-02T01:59:19;97540.06;;;15.56;100.00
11314;BME280;5712;48.858;9.206;2023-07-02T02:01:45;97543.41;;;15.58;100.00
11314;BME280;5712;48.858;9.206;2023-07-02T02:04:12;97547.06;;;15.57;100.00
11314;BME280;5712;48.858;9.206;2023-07-02T02:06:39;97548.91;;;15.57;100.00
11314;BME280;5712;48.858;9.206;2023-07-02T02:09:07;97556.75;;;15.58;100.00
11314;BME280;5712;48.858;9.206;2023-07-02T02:11:39;97555.22;;;15.56;100.00
11314;BME280;5712;48.858;9.206;2023-07-02T02:14:05;97561.66;;;15.53;100.00
11314;BME280;5712;48.858;9.206;2023-07-02T02:16:32;97554.13;;;15.49;100.00
11314;BME280;5712;48.858;9.206;2023-07-02T02:19:00;97554.44;;;15.46;100.00
11314;BME280;5712;48.858;9.206;2023-07-02T02:21:27;97559.47;;;15.49;100.00
11314;BME280;5712;48.858;9.206;2023-07-02T02:23:53;97557.88;;;15.56;100.00
11314;BME280;5712;48.858;9.206;2023-07-02T02:26:21;97560.78;;;15.62;100.00
11314;BME280;5712;48.858;9.206;2023-07-02T02:28:49;97561.84;;;15.69;100.00
11314;BME280;5712;48.858;9.206;2023-07-02T02:31:16;97565.72;;;15.75;100.00
11314;BME280;5712;48.858;9.206;2023-07-02T02:33:42;97563.63;;;15.78;100.00
11314;BME280;5712;48.858;9.206;2023-07-02T02:36:09;97558.97;;;15.80;100.00
11314;BME280;5712;48.858;9.206;2023-07-02T02:38:35;97556.69;;;15.85;100.00
11314;BME280;5712;48.858;9.206;2023-07-02T02:41:02;97556.38;;;15.88;100.00
11314;BME280;5712;48.858;9.206;2023-07-02T02:43:29;97556.91;;;15.92;100.00
11314;BME280;5712;48.858;9.206;2023-07-02T02:45:57;97557.44;;;15.95;100.00
11314;BME280;5712;48.858;9.206;2023-07-02T02:48:23;97565.28;;;15.97;100.00
11314;BME280;5712;48.858;9.206;2023-07-02T02:50:50;97558.81;;;15.99;100.00
11314;BME280;5712;48.858;9.206;2023-07-02T02:53:17;97561.84;;;16.04;100.00
11314;BME280;5712;48.858;9.206;2023-07-02T02:55:43;97563.22;;;16.08;100.00
11314;BME280;5712;48.858;9.206;2023-07-02T02:58:10;97567.41;;;16.10;100.00
11314;BME280;5712;48.858;9.206;2023-07-02T03:00:36;97569.31;;;16.18;100.00
11314;BME280;5712;48.858;9.206;2023-07-02T03:03:09;97582.78;;;16.16;100.00
11314;BME280;5712;48.858;9.206;2023-07-02T03:05:36;97579.97;;;16.18;100.00
11314;BME280;5712;48.858;9.206;2023-07-02T03:08:03;97591.16;;;16.21;100.00
11314;BME280;5712;48.858;9.206;2023-07-02T03:10:30;97597.03;;;16.25;100.00
11314;BME280;5712;48.858;9.206;2023-07-02T03:12:56;97593.91;;;16.29;100.00
11314;BME280;5712;48.858;9.206;2023-07-02T03:15:23;97587.94;;;16.35;100.00
11314;BME280;5712;48.858;9.206;2023-07-02T03:17:49;97609.91;;;16.29;100.00
11314;BME280;5712;48.858;9.206;2023-07-02T03:20:17;97623.94;;;16.31;100.00
11314;BME280;5712;48.858;9.206;2023-07-02T03:22:44;97628.41;;;16.31;100.00
11314;BME280;5712;48.858;9.206;2023-07-02T03:25:10;97629.09;;;16.15;100.00
11314;BME280;5712;48.858;9.206;2023-07-02T03:27:37;97628.66;;;16.02;100.00
11314;BME280;5712;48.858;9.206;2023-07-02T03:30:04;97631.63;;;16.00;100.00
11314;BME280;5712;48.858;9.206;2023-07-02T03:32:31;97640.22;;;15.94;100.00
11314;BME280;5712;48.858;9.206;2023-07-02T03:34:58;97639.69;;;15.90;100.00
11314;BME280;5712;48.858;9.206;2023-07-02T03:37:25;97644.16;;;15.90;100.00
11314;BME280;5712;48.858;9.206;2023-07-02T03:39:52;97644.16;;;15.90;100.00
11314;BME280;5712;48.858;9.206;2023-07-02T03:42:18;97643.63;;;15.86;100.00
11314;BME280;5712;48.858;9.206;2023-07-02T03:44:45;97647.13;;;15.87;100.00
11314;BME280;5712;48.858;9.206;2023-07-02T03:47:11;97649.97;;;15.85;100.00
11314;BME280;5712;48.858;9.206;2023-07-02T03:49:41;97657.69;;;15.79;100.00
11314;BME280;5712;48.858;9.206;2023-07-02T03:52:07;97662.50;;;15.75;100.00
11314;BME280;5712;48.858;9.206;2023-07-02T03:54:35;97665.63;;;15.71;100.00
11314;BME280;5712;48.858;9.206;2023-07-02T03:57:02;97674.59;;;15.70;100.00
11314;BME280;5712;48.858;9.206;2023-07-02T03:59:28;97682.19;;;15.65;100.00
11314;BME280;5712;48.858;9.206;2023-07-02T04:01:55;97682.88;;;15.67;100.00
11314;BME280;5712;48.858;9.206;2023-07-02T04:04:21;97684.47;;;15.60;100.00
11314;BME280;5712;48.858;9.206;2023-07-02T04:06:48;97682.47;;;15.62;100.00
11314;BME280;5712;48.858;9.206;2023-07-02T04:09:14;97681.94;;;15.58;100.00
11314;BME280;5712;48.858;9.206;2023-07-02T04:11:42;97687.44;;;15.57;100.00
11314;BME280;5712;48.858;9.206;2023-07-02T04:14:09;97686.44;;;15.58;100.00
11314;BME280;5712;48.858;9.206;2023-07-02T04:16:35;97692.03;;;15.55;100.00
11314;BME280;5712;48.858;9.206;2023-07-02T04:19:02;97702.41;;;15.58;100.00
11314;BME280;5712;48.858;9.206;2023-07-02T04:21:28;97693.13;;;15.62;100.00
11314;BME280;5712;48.858;9.206;2023-07-02T04:23:55;97691.44;;;15.61;100.00
11314;BME280;5712;48.858;9.206;2023-07-02T04:26:22;97682.19;;;15.65;100.00
11314;BME280;5712;48.858;9.206;2023-07-02T04:28:53;97681.34;;;15.64;100.00
11314;BME280;5712;48.858;9.206;2023-07-02T04:31:19;97688.59;;;15.72;100.00
11314;BME280;5712;48.858;9.206;2023-07-02T04:33:46;97691.94;;;15.74;100.00
11314;BME280;5712;48.858;9.206;2023-07-02T04:36:12;97693.38;;;15.68;100.00
11314;BME280;5712;48.858;9.206;2023-07-02T04:38:39;97692.53;;;15.68;100.00
11314;BME280;5712;48.858;9.206;2023-07-02T04:41:06;97688.66;;;15.62;100.00
11314;BME280;5712;48.858;9.206;2023-07-02T04:43:35;97687.78;;;15.62;100.00
11314;BME280;5712;48.858;9.206;2023-07-02T04:46:03;97690.91;;;15.57;100.00
11314;BME280;5712;48.858;9.206;2023-07-02T04:48:33;97686.72;;;15.55;100.00
11314;BME280;5712;48.858;9.206;2023-07-02T04:50:59;97704.78;;;15.61;100.00
11314;BME280;5712;48.858;9.206;2023-07-02T04:53:26;97703.38;;;15.66;100.00
11314;BME280;5712;48.858;9.206;2023-07-02T04:55:52;97710.19;;;15.69;100.00
11314;BME280;5712;48.858;9.206;2023-07-02T04:58:18;97711.59;;;15.73;100.00
11314;BME280;5712;48.858;9.206;2023-07-02T05:00:45;97714.94;;;15.75;100.00
11314;BME280;5712;48.858;9.206;2023-07-02T05:03:13;97717.41;;;15.86;100.00
11314;BME280;5712;48.858;9.206;2023-07-02T05:05:39;97719.72;;;15.98;100.00
11314;BME280;5712;48.858;9.206;2023-07-02T05:08:06;97725.50;;;16.38;100.00
11314;BME280;5712;48.858;9.206;2023-07-02T05:10:32;97718.13;;;16.84;100.00
11314;BME280;5712;48.858;9.206;2023-07-02T05:12:59;97730.25;;;17.39;100.00
11314;BME280;5712;48.858;9.206;2023-07-02T05:15:25;97726.31;;;17.85;100.00
11314;BME280;5712;48.858;9.206;2023-07-02T05:17:52;97734.88;;;17.96;100.00
11314;BME280;5712;48.858;9.206;2023-07-02T05:20:20;97738.06;;;17.66;100.00
11314;BME280;5712;48.858;9.206;2023-07-02T05:22:46;97737.25;;;17.40;100.00
11314;BME280;5712;48.858;9.206;2023-07-02T05:25:13;97745.13;;;17.24;100.00
11314;BME280;5712;48.858;9.206;2023-07-02T05:27:42;97751.28;;;17.42;100.00
11314;BME280;5712;48.858;9.206;2023-07-02T05:30:09;97740.00;;;17.90;100.00
11314;BME280;5712;48.858;9.206;2023-07-02T05:32:36;97752.16;;;18.26;100.00
11314;BME280;5712;48.858;9.206;2023-07-02T05:35:04;97754.78;;;18.59;100.00
11314;BME280;5712;48.858;9.206;2023-07-02T05:37:32;97753.50;;;18.87;98.06
11314;BME280;5712;48.858;9.206;2023-07-02T05:39:59;97754.16;;;19.45;94.86
11314;BME280;5712;48.858;9.206;2023-07-02T05:42:25;97742.50;;;19.93;91.08
11314;BME280;5712;48.858;9.206;2023-07-02T05:44:52;97744.38;;;20.31;87.05
11314;BME280;5712;48.858;9.206;2023-07-02T05:47:18;97728.22;;;20.61;83.77
11314;BME280;5712;48.858;9.206;2023-07-02T05:49:45;97738.63;;;21.09;83.20
11314;BME280;5712;48.858;9.206;2023-07-02T05:52:11;97731.72;;;20.92;78.71
11314;BME280;5712;48.858;9.206;2023-07-02T05:54:40;97730.44;;;20.80;79.68
11314;BME280;5712;48.858;9.206;2023-07-02T05:57:07;97727.88;;;20.64;79.15
11314;BME280;5712;48.858;9.206;2023-07-02T05:59:33;97739.25;;;20.74;79.54
11314;BME280;5712;48.858;9.206;2023-07-02T06:02:00;97736.09;;;20.40;74.54
11314;BME280;5712;48.858;9.206;2023-07-02T06:04:26;97751.78;;;20.21;76.24
11314;BME280;5712;48.858;9.206;2023-07-02T06:06:53;97749.03;;;19.82;76.03
11314;BME280;5712;48.858;9.206;2023-07-02T06:09:19;97767.81;;;19.82;81.31
11314;BME280;5712;48.858;9.206;2023-07-02T06:11:47;97764.72;;;20.17;81.37
11314;BME280;5712;48.858;9.206;2023-07-02T06:14:13;97756.03;;;19.99;78.43
11314;BME280;5712;48.858;9.206;2023-07-02T06:16:40;97763.66;;;19.80;79.00
11314;BME280;5712;48.858;9.206;2023-07-02T06:19:07;97763.38;;;19.51;79.50
11314;BME280;5712;48.858;9.206;2023-07-02T06:21:33;97780.66;;;19.32;83.46
11314;BME280;5712;48.858;9.206;2023-07-02T06:24:00;97765.88;;;19.52;80.97
11314;BME280;5712;48.858;9.206;2023-07-02T06:26:27;97761.22;;;19.38;79.89
11314;BME280;5712;48.858;9.206;2023-07-02T06:28:56;97775.03;;;19.82;80.30
11314;BME280;5712;48.858;9.206;2023-07-02T06:31:23;97761.34;;;20.23;76.17
11314;BME280;5712;48.858;9.206;2023-07-02T06:33:50;97757.16;;;20.21;76.33
11314;BME280;5712;48.858;9.206;2023-07-02T06:36:16;97769.13;;;20.02;76.54
11314;BME280;5712;48.858;9.206;2023-07-02T06:38:43;97772.56;;;19.64;78.96
11314;BME280;5712;48.858;9.206;2023-07-02T06:41:09;97770.88;;;19.63;76.90
11314;BME280;5712;48.858;9.206;2023-07-02T06:43:36;97774.53;;;20.41;76.88
11314;BME280;5712;48.858;9.206;2023-07-02T06:46:04;97764.44;;;21.18;72.93
11314;BME280;5712;48.858;9.206;2023-07-02T06:48:31;97753.34;;;21.73;70.43
11314;BME280;5712;48.858;9.206;2023-07-02T06:50:58;97755.47;;;21.77;70.68
11314;BME280;5712;48.858;9.206;2023-07-02T06:53:24;97756.59;;;21.68;70.55
11314;BME280;5712;48.858;9.206;2023-07-02T06:55:51;97754.97;;;21.59;68.21
11314;BME280;5712;48.858;9.206;2023-07-02T06:58:17;97750.78;;;21.94;66.40
11314;BME280;5712;48.858;9.206;2023-07-02T07:00:44;97744.06;;;22.33;64.59
11314;BME280;5712;48.858;9.206;2023-07-02T07:03:12;97739.31;;;22.35;62.77
11314;BME280;5712;48.858;9.206;2023-07-02T07:05:39;97752.03;;;22.56;64.43
11314;BME280;5712;48.858;9.206;2023-07-02T07:08:05;97739.94;;;22.52;63.37
11314;BME280;5712;48.858;9.206;2023-07-02T07:10:32;97750.22;;;21.98;67.12
11314;BME280;5712;48.858;9.206;2023-07-02T07:13:00;97737.31;;;21.79;65.16
11314;BME280;5712;48.858;9.206;2023-07-02T07:15:29;97751.06;;;21.47;66.82
11314;BME280;5712;48.858;9.206;2023-07-02T07:17:56;97760.91;;;21.18;70.55
11314;BME280;5712;48.858;9.206;2023-07-02T07:20:24;97743.88;;;20.80;66.66
11314;BME280;5712;48.858;9.206;2023-07-02T07:22:50;97763.50;;;20.58;71.99
11314;BME280;5712;48.858;9.206;2023-07-02T07:25:17;97764.59;;;20.41;72.33
11314;BME280;5712;48.858;9.206;2023-07-02T07:27:43;97759.75;;;20.37;71.14
11314;BME280;5712;48.858;9.206;2023-07-02T07:30:11;97753.44;;;20.30;69.97
11314;BME280;5712;48.858;9.206;2023-07-02T07:32:39;97767.34;;;20.25;71.14
11314;BME280;5712;48.858;9.206;2023-07-02T07:35:06;97761.00;;;20.26;68.43
11314;BME280;5712;48.858;9.206;2023-07-02T07:37:34;97753.06;;;20.33;68.42
11314;BME280;5712;48.858;9.206;2023-07-02T07:40:01;97758.91;;;20.36;68.62
11314;BME280;5712;48.858;9.206;2023-07-02T07:42:27;97755.22;;;20.37;67.82
11314;BME280;5712;48.858;9.206;2023-07-02T07:44:54;97734.41;;;20.39;65.76
11314;BME280;5712;48.858;9.206;2023-07-02T07:47:20;97757.41;;;20.34;67.35
11314;BME280;5712;48.858;9.206;2023-07-02T07:49:47;97751.88;;;20.35;66.21
11314;BME280;5712;48.858;9.206;2023-07-02T07:52:13;97747.34;;;20.36;66.41
11314;BME280;5712;48.858;9.206;2023-07-02T07:54:41;97758.75;;;20.38;66.49
11314;BME280;5712;48.858;9.206;2023-07-02T07:57:08;97761.75;;;20.43;67.04
11314;BME280;5712;48.858;9.206;2023-07-02T07:59:35;97732.88;;;20.45;62.70
11314;BME280;5712;48.858;9.206;2023-07-02T08:02:01;97743.78;;;20.43;64.17
11314;BME280;5712;48.858;9.206;2023-07-02T08:04:28;97759.22;;;20.41;66.62
11314;BME280;5712;48.858;9.206;2023-07-02T08:06:54;97756.16;;;20.52;64.12
11314;BME280;5712;48.858;9.206;2023-07-02T08:09:22;97762.47;;;20.59;64.35
11314;BME280;5712;48.858;9.206;2023-07-02T08:11:50;97754.38;;;20.67;64.36
11314;BME280;5712;48.858;9.206;2023-07-02T08:14:17;97736.25;;;20.69;61.92
11314;BME280;5712;48.858;9.206;2023-07-02T08:16:44;97740.44;;;20.72;62.57
11314;BME280;5712;48.858;9.206;2023-07-02T08:19:10;97738.47;;;20.66;62.11
11314;BME280;5712;48.858;9.206;2023-07-02T08:21:37;97733.91;;;20.66;62.08
11314;BME280;5712;48.858;9.206;2023-07-02T08:24:03;97747.09;;;20.53;63.23
11314;BME280;5712;48.858;9.206;2023-07-02T08:26:31;97743.34;;;20.62;62.19
11314;BME280;5712;48.858;9.206;2023-07-02T08:28:59;97743.06;;;20.80;62.14
11314;BME280;5712;48.858;9.206;2023-07-02T08:31:25;97732.41;;;20.86;61.16
11314;BME280;5712;48.858;9.206;2023-07-02T08:33:52;97731.06;;;20.90;59.71
11314;BME280;5712;48.858;9.206;2023-07-02T08:36:19;97724.81;;;20.98;59.07
11314;BME280;5712;48.858;9.206;2023-07-02T08:38:45;97739.75;;;21.00;61.22
11314;BME280;5712;48.858;9.206;2023-07-02T08:41:12;97743.66;;;21.12;60.05
11314;BME280;5712;48.858;9.206;2023-07-02T08:43:39;97742.88;;;21.26;59.61
11314;BME280;5712;48.858;9.206;2023-07-02T08:46:07;97729.63;;;21.39;58.79
11314;BME280;5712;48.858;9.206;2023-07-02T08:48:34;97728.16;;;21.51;58.18
11314;BME280;5712;48.858;9.206;2023-07-02T08:51:02;97737.91;;;21.52;59.35
11314;BME280;5712;48.858;9.206;2023-07-02T08:53:29;97732.72;;;21.65;58.31
11314;BME280;5712;48.858;9.206;2023-07-02T08:55:59;97739.56;;;21.76;58.80
11314;BME280;5712;48.858;9.206;2023-07-02T08:58:25;97730.34;;;21.70;57.45
11314;BME280;5712;48.858;9.206;2023-07-02T09:01:10;97733.09;;;21.62;57.33
11314;BME280;5712;48.858;9.206;2023-07-02T09:03:38;97725.38;;;21.59;56.12
11314;BME280;5712;48.858;9.206;2023-07-02T09:06:05;97741.34;;;21.61;58.14
11314;BME280;5712;48.858;9.206;2023-07-02T09:08:33;97735.66;;;21.78;57.94
11314;BME280;5712;48.858;9.206;2023-07-02T09:11:08;97732.13;;;21.92;56.73
11314;BME280;5712;48.858;9.206;2023-07-02T09:13:42;97733.22;;;22.12;56.24
11314;BME280;5712;48.858;9.206;2023-07-02T09:16:24;97736.47;;;22.22;56.12
11314;BME280;5712;48.858;9.206;2023-07-02T09:19:02;97715.19;;;22.27;53.09
11314;BME280;5712;48.858;9.206;2023-07-02T09:21:38;97739.03;;;22.30;55.54
11314;BME280;5712;48.858;9.206;2023-07-02T09:24:15;97749.19;;;22.28;57.03
11314;BME280;5712;48.858;9.206;2023-07-02T09:26:43;97740.78;;;22.38;56.82
11314;BME280;5712;48.858;9.206;2023-07-02T09:29:09;97727.78;;;22.41;54.78
11314;BME280;5712;48.858;9.206;2023-07-02T09:31:44;97715.91;;;22.50;53.06
11314;BME280;5712;48.858;9.206;2023-07-02T09:34:11;97714.91;;;22.72;52.86
11314;BME280;5712;48.858;9.206;2023-07-02T09:36:38;97719.06;;;22.96;52.18
11314;BME280;5712;48.858;9.206;2023-07-02T09:39:06;97689.16;;;23.12;50.17
11314;BME280;5712;48.858;9.206;2023-07-02T09:41:33;97698.94;;;22.92;49.52
11314;BME280;5712;48.858;9.206;2023-07-02T09:44:01;97708.81;;;22.85;50.31
11314;BME280;5712;48.858;9.206;2023-07-02T09:46:29;97713.50;;;22.97;50.25
11314;BME280;5712;48.858;9.206;2023-07-02T09:48:58;97700.03;;;22.76;49.16
11314;BME280;5712;48.858;9.206;2023-07-02T09:51:25;97697.44;;;22.68;49.34
11314;BME280;5712;48.858;9.206;2023-07-02T09:53:52;97692.31;;;22.52;50.19
11314;BME280;5712;48.858;9.206;2023-07-02T09:56:19;97697.31;;;22.55;50.43
11314;BME280;5712;48.858;9.206;2023-07-02T09:58:46;97684.34;;;22.44;49.56
11314;BME280;5712;48.858;9.206;2023-07-02T10:01:13;97706.72;;;22.45;51.11
11314;BME280;5712;48.858;9.206;2023-07-02T10:03:40;97708.84;;;22.49;51.37
11314;BME280;5712;48.858;9.206;2023-07-02T10:06:08;97698.03;;;22.64;50.10
11314;BME280;5712;48.858;9.206;2023-07-02T10:08:35;97701.75;;;22.63;50.98
11314;BME280;5712;48.858;9.206;2023-07-02T10:11:08;97689.03;;;22.57;49.39
11314;BME280;5712;48.858;9.206;2023-07-02T10:13:35;97700.66;;;22.57;50.75
11314;BME280;5712;48.858;9.206;2023-07-02T10:16:02;97700.13;;;22.47;49.57
11314;BME280;5712;48.858;9.206;2023-07-02T10:18:29;97694.75;;;22.33;49.59
11314;BME280;5712;48.858;9.206;2023-07-02T10:20:55;97703.00;;;22.46;49.91
11314;BME280;5712;48.858;9.206;2023-07-02T10:23:33;97686.44;;;22.63;49.00
11314;BME280;5712;48.858;9.206;2023-07-02T10:26:09;97695.78;;;22.67;49.93
11314;BME280;5712;48.858;9.206;2023-07-02T10:28:36;97707.03;;;22.92;51.17
11314;BME280;5712;48.858;9.206;2023-07-02T10:31:02;97698.16;;;23.19;50.01
11314;BME280;5712;48.858;9.206;2023-07-02T10:33:29;97679.72;;;23.22;48.72
11314;BME280;5712;48.858;9.206;2023-07-02T10:35:56;97676.31;;;23.35;48.47
11314;BME280;5712;48.858;9.206;2023-07-02T10:38:23;97689.38;;;23.38;48.91
11314;BME280;5712;48.858;9.206;2023-07-02T10:40:55;97665.22;;;23.23;47.97
11314;BME280;5712;48.858;9.206;2023-07-02T10:43:25;97677.13;;;23.35;48.02
11314;BME280;5712;48.858;9.206;2023-07-02T10:45:56;97675.22;;;23.29;47.77
11314;BME280;5712;48.858;9.206;2023-07-02T10:48:23;97679.69;;;23.43;48.34
11314;BME280;5712;48.858;9.206;2023-07-02T10:50:49;97673.19;;;23.38;47.36
11314;BME280;5712;48.858;9.206;2023-07-02T10:53:16;97671.25;;;23.25;47.91
11314;BME280;5712;48.858;9.206;2023-07-02T10:55:43;97683.31;;;23.29;49.12
11314;BME280;5712;48.858;9.206;2023-07-02T10:58:12;97701.97;;;23.52;50.30
11314;BME280;5712;48.858;9.206;2023-07-02T11:00:46;97687.63;;;23.85;48.73
11314;BME280;5712;48.858;9.206;2023-07-02T11:03:16;97688.13;;;23.95;48.93
11314;BME280;5712;48.858;9.206;2023-07-02T11:05:44;97678.22;;;24.09;47.03
11314;BME280;5712;48.858;9.206;2023-07-02T11:08:11;97695.94;;;24.24;48.90
11314;BME280;5712;48.858;9.206;2023-07-02T11:10:37;97687.28;;;24.35;47.78
11314;BME280;5712;48.858;9.206;2023-07-02T11:13:12;97688.31;;;24.34;47.87
11314;BME280;5712;48.858;9.206;2023-07-02T11:15:38;97652.19;;;24.48;44.97
11314;BME280;5712;48.858;9.206;2023-07-02T11:18:10;97670.53;;;24.66;45.35
11314;BME280;5712;48.858;9.206;2023-07-02T11:20:36;97658.09;;;24.78;44.18
11314;BME280;5712;48.858;9.206;2023-07-02T11:23:03;97663.91;;;24.81;44.33
11314;BME280;5712;48.858;9.206;2023-07-02T11:25:30;97654.69;;;24.56;44.65
11314;BME280;5712;48.858;9.206;2023-07-02T11:28:02;97658.78;;;24.39;45.34
11314;BME280;5712;48.858;9.206;2023-07-02T11:30:30;97648.75;;;24.20;45.30
11314;BME280;5712;48.858;9.206;2023-07-02T11:32:57;97659.47;;;23.94;46.10
11314;BME280;5712;48.858;9.206;2023-07-02T11:35:34;97648.50;;;23.68;45.48
11314;BME280;5712;48.858;9.206;2023-07-02T11:38:01;97661.09;;;23.55;45.83
11314;BME280;5712;48.858;9.206;2023-07-02T11:40:28;97652.84;;;23.35;45.53
11314;BME280;5712;48.858;9.206;2023-07-02T11:42:54;97657.34;;;23.56;46.09
11314;BME280;5712;48.858;9.206;2023-07-02T11:45:21;97654.28;;;23.65;46.74
11314;BME280;5712;48.858;9.206;2023-07-02T11:47:50;97657.38;;;23.96;46.49
11314;BME280;5712;48.858;9.206;2023-07-02T11:50:17;97653.06;;;24.08;45.42
11314;BME280;5712;48.858;9.206;2023-07-02T11:52:43;97655.34;;;23.98;45.57
11314;BME280;5712;48.858;9.206;2023-07-02T11:55:10;97647.44;;;24.03;45.96
11314;BME280;5712;48.858;9.206;2023-07-02T11:57:36;97661.59;;;24.05;46.34
11314;BME280;5712;48.858;9.206;2023-07-02T12:00:04;97649.84;;;23.85;45.96
11314;BME280;5712;48.858;9.206;2023-07-02T12:02:31;97639.63;;;23.74;45.45
11314;BME280;5712;48.858;9.206;2023-07-02T12:04:59;97660.78;;;23.77;47.13
11314;BME280;5712;48.858;9.206;2023-07-02T12:07:26;97647.03;;;24.00;45.96
11314;BME280;5712;48.858;9.206;2023-07-02T12:09:52;97654.94;;;24.01;47.25
11314;BME280;5712;48.858;9.206;2023-07-02T12:12:19;97659.19;;;24.23;45.92
11314;BME280;5712;48.858;9.206;2023-07-02T12:14:45;97634.91;;;24.36;45.21
11314;BME280;5712;48.858;9.206;2023-07-02T12:17:11;97645.50;;;24.44;44.83
11314;BME280;5712;48.858;9.206;2023-07-02T12:19:38;97623.44;;;24.28;43.34
11314;BME280;5712;48.858;9.206;2023-07-02T12:24:33;97611.63;;;24.35;42.61
11314;BME280;5712;48.858;9.206;2023-07-02T12:26:59;97617.66;;;24.37;42.41
11314;BME280;5712;48.858;9.206;2023-07-02T12:29:26;97625.97;;;24.42;43.08
11314;BME280;5712;48.858;9.206;2023-07-02T12:31:52;97625.22;;;24.61;42.92
11314;BME280;5712;48.858;9.206;2023-07-02T12:34:19;97619.81;;;24.87;42.54
11314;BME280;5712;48.858;9.206;2023-07-02T12:36:45;97626.28;;;24.80;42.97
11314;BME280;5712;48.858;9.206;2023-07-02T12:39:13;97612.75;;;24.60;42.59
11314;BME280;5712;48.858;9.206;2023-07-02T12:41:40;97618.91;;;24.41;42.78
11314;BME280;5712;48.858;9.206;2023-07-02T12:44:07;97613.50;;;24.28;42.59
11314;BME280;5712;48.858;9.206;2023-07-02T12:46:33;97633.25;;;24.42;44.49
11314;BME280;5712;48.858;9.206;2023-07-02T12:49:00;97621.06;;;24.65;42.54
11314;BME280;5712;48.858;9.206;2023-07-02T12:51:26;97609.84;;;24.68;41.75
11314;BME280;5712;48.858;9.206;2023-07-02T12:53:53;97607.75;;;24.70;41.72
11314;BME280;5712;48.858;9.206;2023-07-02T12:56:21;97596.53;;;24.60;41.03
11314;BME280;5712;48.858;9.206;2023-07-02T12:58:47;97613.97;;;24.64;42.46
11314;BME280;5712;48.858;9.206;2023-07-02T13:01:14;97597.56;;;24.59;41.11
11314;BME280;5712;48.858;9.206;2023-07-02T13:03:45;97608.16;;;24.61;40.95
11314;BME280;5712;48.858;9.206;2023-07-02T13:06:11;97607.34;;;24.73;41.89
11314;BME280;5712;48.858;9.206;2023-07-02T13:08:38;97601.97;;;24.80;41.72
11314;BME280;5712;48.858;9.206;2023-07-02T13:11:04;97589.47;;;24.72;41.23